sensor_id;sensor_type;location;lat;lon;timestamp;P1;durP1;ratioP1;P2;durP2;ratioP2
22441;SDS011;11388;54.456;9.752;2022-08-23T00:01:23;7.05;;;2.20;;
22441;SDS011;11388;54.456;9.752;2022-08-23T00:03:52;6.97;;;2.00;;
22441;SDS011;11388;54.456;9.752;2022-08-23T00:06:20;6.03;;;1.67;;
22441;SDS011;11388;54.456;9.752;2022-08-23T00:08:47;6.32;;;1.90;;
22441;SDS011;11388;54.456;9.752;2022-08-23T00:11:28;5.85;;;1.67;;
22441;SDS011;11388;54.456;9.752;2022-08-23T00:13:58;4.95;;;1.67;;
22441;SDS011;11388;54.456;9.752;2022-08-23T00:19:48;5.07;;;1.80;;
22441;SDS011;11388;54.456;9.752;2022-08-23T00:22:13;5.03;;;1.63;;
22441;SDS011;11388;54.456;9.752;2022-08-23T00:24:40;5.35;;;1.88;;
22441;SDS011;11388;54.456;9.752;2022-08-23T00:27:10;6.57;;;1.50;;
22441;SDS011;11388;54.456;9.752;2022-08-23T00:29:45;5.95;;;1.60;;
22441;SDS011;11388;54.456;9.752;2022-08-23T00:32:21;3.75;;;1.40;;
22441;SDS011;11388;54.456;9.752;2022-08-23T00:34:52;4.05;;;1.50;;
22441;SDS011;11388;54.456;9.752;2022-08-23T00:37:19;3.75;;;1.58;;
22441;SDS011;11388;54.456;9.752;2022-08-23T00:39:46;4.47;;;1.63;;
22441;SDS011;11388;54.456;9.752;2022-08-23T00:42:26;4.07;;;1.60;;
22441;SDS011;11388;54.456;9.752;2022-08-23T00:45:15;6.43;;;1.80;;
22441;SDS011;11388;54.456;9.752;2022-08-23T00:48:02;5.38;;;1.60;;
22441;SDS011;11388;54.456;9.752;2022-08-23T00:56:38;5.05;;;1.63;;
22441;SDS011;11388;54.456;9.752;2022-08-23T00:59:05;4.88;;;1.55;;
22441;SDS011;11388;54.456;9.752;2022-08-23T01:01:31;5.25;;;1.60;;
22441;SDS011;11388;54.456;9.752;2022-08-23T01:03:58;6.10;;;1.83;;
22441;SDS011;11388;54.456;9.752;2022-08-23T01:06:26;4.55;;;1.65;;
22441;SDS011;11388;54.456;9.752;2022-08-23T01:09:05;6.00;;;1.70;;
22441;SDS011;11388;54.456;9.752;2022-08-23T01:17:24;6.07;;;1.48;;
22441;SDS011;11388;54.456;9.752;2022-08-23T01:19:37;4.65;;;1.55;;
22441;SDS011;11388;54.456;9.752;2022-08-23T01:24:44;5.57;;;1.60;;
22441;SDS011;11388;54.456;9.752;2022-08-23T01:27:11;7.07;;;1.70;;
22441;SDS011;11388;54.456;9.752;2022-08-23T01:29:38;5.47;;;1.63;;
22441;SDS011;11388;54.456;9.752;2022-08-23T01:35:42;5.85;;;1.85;;
22441;SDS011;11388;54.456;9.752;2022-08-23T01:38:12;5.30;;;1.50;;
22441;SDS011;11388;54.456;9.752;2022-08-23T01:40:39;5.25;;;1.58;;
22441;SDS011;11388;54.456;9.752;2022-08-23T01:43:06;4.70;;;1.70;;
22441;SDS011;11388;54.456;9.752;2022-08-23T01:45:33;5.65;;;1.60;;
22441;SDS011;11388;54.456;9.752;2022-08-23T01:47:59;6.38;;;1.73;;
22441;SDS011;11388;54.456;9.752;2022-08-23T01:50:27;4.95;;;1.58;;
22441;SDS011;11388;54.456;9.752;2022-08-23T01:52:53;5.20;;;1.77;;
22441;SDS011;11388;54.456;9.752;2022-08-23T01:55:19;6.85;;;1.85;;
22441;SDS011;11388;54.456;9.752;2022-08-23T01:57:46;6.10;;;1.92;;
22441;SDS011;11388;54.456;9.752;2022-08-23T02:00:14;6.15;;;1.75;;
22441;SDS011;11388;54.456;9.752;2022-08-23T02:02:40;4.13;;;1.50;;
22441;SDS011;11388;54.456;9.752;2022-08-23T02:05:07;5.90;;;2.00;;
22441;SDS011;11388;54.456;9.752;2022-08-23T02:07:33;5.50;;;1.63;;
22441;SDS011;11388;54.456;9.752;2022-08-23T02:10:02;5.40;;;1.60;;
22441;SDS011;11388;54.456;9.752;2022-08-23T02:12:29;4.90;;;1.70;;
22441;SDS011;11388;54.456;9.752;2022-08-23T02:14:55;6.57;;;1.77;;
22441;SDS011;11388;54.456;9.752;2022-08-23T02:17:21;4.95;;;1.85;;
22441;SDS011;11388;54.456;9.752;2022-08-23T02:19:47;5.38;;;1.77;;
22441;SDS011;11388;54.456;9.752;2022-08-23T02:22:13;4.90;;;1.60;;
22441;SDS011;11388;54.456;9.752;2022-08-23T02:24:40;5.22;;;1.80;;
22441;SDS011;11388;54.456;9.752;2022-08-23T02:27:07;5.75;;;1.90;;
22441;SDS011;11388;54.456;9.752;2022-08-23T02:29:34;5.97;;;1.90;;
22441;SDS011;11388;54.456;9.752;2022-08-23T02:32:00;5.00;;;1.80;;
22441;SDS011;11388;54.456;9.752;2022-08-23T02:34:28;5.40;;;1.70;;
22441;SDS011;11388;54.456;9.752;2022-08-23T02:36:55;7.13;;;1.95;;
22441;SDS011;11388;54.456;9.752;2022-08-23T02:39:21;5.50;;;1.80;;
22441;SDS011;11388;54.456;9.752;2022-08-23T02:41:48;7.72;;;2.42;;
22441;SDS011;11388;54.456;9.752;2022-08-23T02:44:14;4.95;;;1.77;;
22441;SDS011;11388;54.456;9.752;2022-08-23T02:46:40;4.72;;;1.75;;
22441;SDS011;11388;54.456;9.752;2022-08-23T02:49:07;5.68;;;1.73;;
22441;SDS011;11388;54.456;9.752;2022-08-23T02:51:33;6.65;;;2.00;;
22441;SDS011;11388;54.456;9.752;2022-08-23T02:53:59;6.50;;;2.08;;
22441;SDS011;11388;54.456;9.752;2022-08-23T02:56:25;4.75;;;1.73;;
22441;SDS011;11388;54.456;9.752;2022-08-23T02:58:51;5.38;;;1.80;;
22441;SDS011;11388;54.456;9.752;2022-08-23T03:01:17;6.30;;;2.17;;
22441;SDS011;11388;54.456;9.752;2022-08-23T03:03:44;7.18;;;1.98;;
22441;SDS011;11388;54.456;9.752;2022-08-23T03:06:11;4.43;;;2.00;;
22441;SDS011;11388;54.456;9.752;2022-08-23T03:08:38;5.85;;;2.00;;
22441;SDS011;11388;54.456;9.752;2022-08-23T03:11:09;5.80;;;1.85;;
22441;SDS011;11388;54.456;9.752;2022-08-23T03:13:40;5.18;;;1.60;;
22441;SDS011;11388;54.456;9.752;2022-08-23T03:16:06;5.63;;;1.83;;
22441;SDS011;11388;54.456;9.752;2022-08-23T03:18:33;5.80;;;1.83;;
22441;SDS011;11388;54.456;9.752;2022-08-23T03:20:59;6.03;;;1.70;;
22441;SDS011;11388;54.456;9.752;2022-08-23T03:23:25;4.22;;;1.73;;
22441;SDS011;11388;54.456;9.752;2022-08-23T03:25:51;5.20;;;1.80;;
22441;SDS011;11388;54.456;9.752;2022-08-23T03:28:17;5.47;;;1.95;;
22441;SDS011;11388;54.456;9.752;2022-08-23T03:30:44;5.45;;;1.88;;
22441;SDS011;11388;54.456;9.752;2022-08-23T03:33:10;5.15;;;1.60;;
22441;SDS011;11388;54.456;9.752;2022-08-23T03:35:36;5.13;;;2.13;;
22441;SDS011;11388;54.456;9.752;2022-08-23T03:38:01;7.00;;;2.00;;
22441;SDS011;11388;54.456;9.752;2022-08-23T03:40:27;4.93;;;1.85;;
22441;SDS011;11388;54.456;9.752;2022-08-23T03:42:55;3.95;;;1.63;;
22441;SDS011;11388;54.456;9.752;2022-08-23T03:45:21;5.50;;;1.90;;
22441;SDS011;11388;54.456;9.752;2022-08-23T03:47:47;7.32;;;2.08;;
22441;SDS011;11388;54.456;9.752;2022-08-23T03:50:16;4.75;;;1.77;;
22441;SDS011;11388;54.456;9.752;2022-08-23T03:52:41;5.30;;;2.10;;
22441;SDS011;11388;54.456;9.752;2022-08-23T03:55:11;5.15;;;1.98;;
22441;SDS011;11388;54.456;9.752;2022-08-23T03:57:37;4.15;;;1.80;;
22441;SDS011;11388;54.456;9.752;2022-08-23T04:00:04;6.25;;;1.90;;
22441;SDS011;11388;54.456;9.752;2022-08-23T04:02:32;5.57;;;2.13;;
22441;SDS011;11388;54.456;9.752;2022-08-23T04:17:33;5.72;;;1.90;;
22441;SDS011;11388;54.456;9.752;2022-08-23T04:20:43;7.65;;;1.77;;
22441;SDS011;11388;54.456;9.752;2022-08-23T04:23:56;5.18;;;2.10;;
22441;SDS011;11388;54.456;9.752;2022-08-23T04:27:05;6.57;;;2.30;;
22441;SDS011;11388;54.456;9.752;2022-08-23T04:29:58;7.82;;;2.10;;
22441;SDS011;11388;54.456;9.752;2022-08-23T04:32:29;7.38;;;2.13;;
22441;SDS011;11388;54.456;9.752;2022-08-23T04:35:10;5.00;;;1.80;;
22441;SDS011;11388;54.456;9.752;2022-08-23T04:37:45;6.40;;;2.10;;
22441;SDS011;11388;54.456;9.752;2022-08-23T04:40:27;5.53;;;2.00;;
22441;SDS011;11388;54.456;9.752;2022-08-23T04:43:27;3.83;;;1.90;;
22441;SDS011;11388;54.456;9.752;2022-08-23T04:49:22;8.60;;;1.92;;
22441;SDS011;11388;54.456;9.752;2022-08-23T05:14:30;5.53;;;2.10;;
22441;SDS011;11388;54.456;9.752;2022-08-23T05:25:31;3.88;;;2.17;;
22441;SDS011;11388;54.456;9.752;2022-08-23T05:28:17;6.53;;;2.38;;
22441;SDS011;11388;54.456;9.752;2022-08-23T05:30:52;5.10;;;2.00;;
22441;SDS011;11388;54.456;9.752;2022-08-23T05:33:39;5.75;;;2.10;;
22441;SDS011;11388;54.456;9.752;2022-08-23T05:36:06;10.20;;;2.00;;
22441;SDS011;11388;54.456;9.752;2022-08-23T05:38:36;6.78;;;2.20;;
22441;SDS011;11388;54.456;9.752;2022-08-23T05:41:08;4.72;;;2.05;;
22441;SDS011;11388;54.456;9.752;2022-08-23T05:43:45;5.10;;;2.20;;
22441;SDS011;11388;54.456;9.752;2022-08-23T05:46:19;5.20;;;2.17;;
22441;SDS011;11388;54.456;9.752;2022-08-23T05:48:47;8.93;;;2.22;;
22441;SDS011;11388;54.456;9.752;2022-08-23T05:51:25;22.20;;;2.88;;
22441;SDS011;11388;54.456;9.752;2022-08-23T05:54:17;3.70;;;1.80;;
22441;SDS011;11388;54.456;9.752;2022-08-23T05:56:45;5.70;;;2.30;;
22441;SDS011;11388;54.456;9.752;2022-08-23T05:59:12;6.15;;;2.17;;
22441;SDS011;11388;54.456;9.752;2022-08-23T06:01:57;5.22;;;2.05;;
22441;SDS011;11388;54.456;9.752;2022-08-23T06:04:35;4.07;;;1.88;;
22441;SDS011;11388;54.456;9.752;2022-08-23T06:07:10;4.32;;;2.00;;
22441;SDS011;11388;54.456;9.752;2022-08-23T06:09:45;7.22;;;2.60;;
22441;SDS011;11388;54.456;9.752;2022-08-23T06:12:14;4.22;;;1.98;;
22441;SDS011;11388;54.456;9.752;2022-08-23T06:26:50;6.25;;;2.10;;
22441;SDS011;11388;54.456;9.752;2022-08-23T06:29:25;4.38;;;1.70;;
22441;SDS011;11388;54.456;9.752;2022-08-23T06:32:01;4.82;;;1.98;;
22441;SDS011;11388;54.456;9.752;2022-08-23T06:34:46;7.32;;;1.90;;
22441;SDS011;11388;54.456;9.752;2022-08-23T06:37:35;6.78;;;2.13;;
22441;SDS011;11388;54.456;9.752;2022-08-23T06:40:30;4.60;;;2.03;;
22441;SDS011;11388;54.456;9.752;2022-08-23T06:43:12;6.78;;;2.00;;
22441;SDS011;11388;54.456;9.752;2022-08-23T06:52:53;4.60;;;1.98;;
22441;SDS011;11388;54.456;9.752;2022-08-23T06:55:36;7.85;;;2.00;;
22441;SDS011;11388;54.456;9.752;2022-08-23T06:58:34;4.43;;;1.98;;
22441;SDS011;11388;54.456;9.752;2022-08-23T07:17:02;4.40;;;1.95;;
22441;SDS011;11388;54.456;9.752;2022-08-23T07:19:29;4.68;;;2.00;;
22441;SDS011;11388;54.456;9.752;2022-08-23T07:21:57;4.18;;;2.15;;
22441;SDS011;11388;54.456;9.752;2022-08-23T07:24:24;7.43;;;1.90;;
22441;SDS011;11388;54.456;9.752;2022-08-23T07:26:50;5.85;;;1.90;;
22441;SDS011;11388;54.456;9.752;2022-08-23T07:29:17;5.82;;;2.10;;
22441;SDS011;11388;54.456;9.752;2022-08-23T07:31:45;7.53;;;2.40;;
22441;SDS011;11388;54.456;9.752;2022-08-23T07:34:16;4.22;;;2.00;;
22441;SDS011;11388;54.456;9.752;2022-08-23T07:36:43;6.50;;;2.10;;
22441;SDS011;11388;54.456;9.752;2022-08-23T07:39:10;6.10;;;2.10;;
22441;SDS011;11388;54.456;9.752;2022-08-23T07:41:42;4.32;;;2.00;;
22441;SDS011;11388;54.456;9.752;2022-08-23T07:44:09;4.72;;;1.70;;
22441;SDS011;11388;54.456;9.752;2022-08-23T07:46:37;4.07;;;1.85;;
22441;SDS011;11388;54.456;9.752;2022-08-23T07:49:04;5.75;;;2.10;;
22441;SDS011;11388;54.456;9.752;2022-08-23T07:51:31;7.32;;;1.98;;
22441;SDS011;11388;54.456;9.752;2022-08-23T07:53:59;4.40;;;2.08;;
22441;SDS011;11388;54.456;9.752;2022-08-23T07:56:30;4.70;;;1.55;;
22441;SDS011;11388;54.456;9.752;2022-08-23T07:58:56;4.35;;;1.70;;
22441;SDS011;11388;54.456;9.752;2022-08-23T08:01:25;6.05;;;1.85;;
22441;SDS011;11388;54.456;9.752;2022-08-23T08:03:53;6.20;;;1.70;;
22441;SDS011;11388;54.456;9.752;2022-08-23T08:06:31;5.13;;;1.60;;
22441;SDS011;11388;54.456;9.752;2022-08-23T08:09:05;5.22;;;1.80;;
22441;SDS011;11388;54.456;9.752;2022-08-23T08:11:32;5.35;;;1.80;;
22441;SDS011;11388;54.456;9.752;2022-08-23T08:13:59;3.45;;;1.65;;
22441;SDS011;11388;54.456;9.752;2022-08-23T08:16:33;5.40;;;1.70;;
22441;SDS011;11388;54.456;9.752;2022-08-23T08:19:02;5.80;;;1.70;;
22441;SDS011;11388;54.456;9.752;2022-08-23T08:21:29;4.75;;;1.80;;
22441;SDS011;11388;54.456;9.752;2022-08-23T08:23:55;6.35;;;1.80;;
22441;SDS011;11388;54.456;9.752;2022-08-23T08:26:22;5.60;;;1.83;;
22441;SDS011;11388;54.456;9.752;2022-08-23T08:28:48;6.53;;;1.98;;
22441;SDS011;11388;54.456;9.752;2022-08-23T08:31:16;4.90;;;1.80;;
22441;SDS011;11388;54.456;9.752;2022-08-23T08:33:42;5.07;;;1.90;;
22441;SDS011;11388;54.456;9.752;2022-08-23T08:36:10;5.57;;;1.60;;
22441;SDS011;11388;54.456;9.752;2022-08-23T08:39:01;4.13;;;1.60;;
22441;SDS011;11388;54.456;9.752;2022-08-23T08:48:07;4.60;;;1.73;;
22441;SDS011;11388;54.456;9.752;2022-08-23T08:50:38;4.38;;;1.70;;
22441;SDS011;11388;54.456;9.752;2022-08-23T08:53:09;3.30;;;1.50;;
22441;SDS011;11388;54.456;9.752;2022-08-23T08:56:01;7.03;;;1.80;;
22441;SDS011;11388;54.456;9.752;2022-08-23T08:58:34;4.78;;;1.77;;
22441;SDS011;11388;54.456;9.752;2022-08-23T09:01:17;4.32;;;1.73;;
22441;SDS011;11388;54.456;9.752;2022-08-23T09:03:45;3.00;;;1.40;;
22441;SDS011;11388;54.456;9.752;2022-08-23T09:06:20;5.40;;;1.70;;
22441;SDS011;11388;54.456;9.752;2022-08-23T09:08:59;4.85;;;1.77;;
22441;SDS011;11388;54.456;9.752;2022-08-23T09:17:43;3.85;;;1.70;;
22441;SDS011;11388;54.456;9.752;2022-08-23T09:20:09;6.70;;;1.75;;
22441;SDS011;11388;54.456;9.752;2022-08-23T09:22:39;6.72;;;1.67;;
22441;SDS011;11388;54.456;9.752;2022-08-23T09:25:08;5.05;;;1.90;;
22441;SDS011;11388;54.456;9.752;2022-08-23T09:27:40;3.65;;;1.70;;
22441;SDS011;11388;54.456;9.752;2022-08-23T09:30:08;7.15;;;1.70;;
22441;SDS011;11388;54.456;9.752;2022-08-23T09:32:40;4.63;;;1.52;;
22441;SDS011;11388;54.456;9.752;2022-08-23T09:43:00;5.20;;;1.63;;
22441;SDS011;11388;54.456;9.752;2022-08-23T09:45:38;5.05;;;1.92;;
22441;SDS011;11388;54.456;9.752;2022-08-23T09:48:11;6.63;;;1.50;;
22441;SDS011;11388;54.456;9.752;2022-08-23T09:50:39;3.53;;;1.50;;
22441;SDS011;11388;54.456;9.752;2022-08-23T09:53:13;3.45;;;1.30;;
22441;SDS011;11388;54.456;9.752;2022-08-23T09:55:48;5.25;;;1.40;;
22441;SDS011;11388;54.456;9.752;2022-08-23T09:58:18;5.75;;;1.40;;
22441;SDS011;11388;54.456;9.752;2022-08-23T10:03:45;5.82;;;1.73;;
22441;SDS011;11388;54.456;9.752;2022-08-23T10:06:12;5.32;;;1.48;;
22441;SDS011;11388;54.456;9.752;2022-08-23T10:08:52;5.35;;;1.40;;
22441;SDS011;11388;54.456;9.752;2022-08-23T10:11:24;4.70;;;1.38;;
22441;SDS011;11388;54.456;9.752;2022-08-23T10:13:53;6.03;;;1.30;;
22441;SDS011;11388;54.456;9.752;2022-08-23T10:19:13;4.10;;;1.40;;
22441;SDS011;11388;54.456;9.752;2022-08-23T10:22:03;3.58;;;1.20;;
22441;SDS011;11388;54.456;9.752;2022-08-23T10:24:40;2.22;;;1.00;;
22441;SDS011;11388;54.456;9.752;2022-08-23T10:27:12;4.20;;;1.00;;
22441;SDS011;11388;54.456;9.752;2022-08-23T10:30:17;2.80;;;1.25;;
22441;SDS011;11388;54.456;9.752;2022-08-23T10:38:05;4.13;;;0.98;;
22441;SDS011;11388;54.456;9.752;2022-08-23T10:46:29;4.45;;;1.20;;
22441;SDS011;11388;54.456;9.752;2022-08-23T10:49:00;5.68;;;1.10;;
22441;SDS011;11388;54.456;9.752;2022-08-23T10:51:33;2.47;;;0.90;;
22441;SDS011;11388;54.456;9.752;2022-08-23T10:54:09;3.95;;;1.00;;
22441;SDS011;11388;54.456;9.752;2022-08-23T10:56:42;4.78;;;0.90;;
22441;SDS011;11388;54.456;9.752;2022-08-23T10:59:16;4.00;;;1.20;;
22441;SDS011;11388;54.456;9.752;2022-08-23T11:04:34;3.70;;;0.90;;
22441;SDS011;11388;54.456;9.752;2022-08-23T11:07:28;3.67;;;1.08;;
22441;SDS011;11388;54.456;9.752;2022-08-23T11:10:24;4.88;;;1.17;;
22441;SDS011;11388;54.456;9.752;2022-08-23T11:12:53;3.38;;;1.00;;
22441;SDS011;11388;54.456;9.752;2022-08-23T11:15:26;3.63;;;1.00;;
22441;SDS011;11388;54.456;9.752;2022-08-23T11:18:08;3.85;;;0.93;;
22441;SDS011;11388;54.456;9.752;2022-08-23T11:37:30;6.10;;;1.20;;
22441;SDS011;11388;54.456;9.752;2022-08-23T11:40:14;3.83;;;1.15;;
22441;SDS011;11388;54.456;9.752;2022-08-23T11:43:10;5.10;;;1.02;;
22441;SDS011;11388;54.456;9.752;2022-08-23T11:45:45;5.70;;;0.95;;
22441;SDS011;11388;54.456;9.752;2022-08-23T11:51:06;3.28;;;1.20;;
22441;SDS011;11388;54.456;9.752;2022-08-23T11:59:11;2.10;;;1.02;;
22441;SDS011;11388;54.456;9.752;2022-08-23T12:01:59;3.40;;;1.00;;
22441;SDS011;11388;54.456;9.752;2022-08-23T12:07:54;3.65;;;1.27;;
22441;SDS011;11388;54.456;9.752;2022-08-23T12:21:18;3.63;;;1.02;;
22441;SDS011;11388;54.456;9.752;2022-08-23T12:23:51;5.68;;;1.25;;
22441;SDS011;11388;54.456;9.752;2022-08-23T12:26:28;6.00;;;1.10;;
22441;SDS011;11388;54.456;9.752;2022-08-23T12:31:55;3.30;;;1.17;;
22441;SDS011;11388;54.456;9.752;2022-08-23T12:34:45;6.50;;;1.10;;
22441;SDS011;11388;54.456;9.752;2022-08-23T12:37:16;5.10;;;1.30;;
22441;SDS011;11388;54.456;9.752;2022-08-23T12:39:55;3.88;;;1.10;;
22441;SDS011;11388;54.456;9.752;2022-08-23T12:42:25;5.55;;;1.10;;
22441;SDS011;11388;54.456;9.752;2022-08-23T12:47:58;3.78;;;1.00;;
22441;SDS011;11388;54.456;9.752;2022-08-23T12:50:29;3.60;;;0.90;;
22441;SDS011;11388;54.456;9.752;2022-08-23T12:53:04;7.32;;;1.10;;
22441;SDS011;11388;54.456;9.752;2022-08-23T12:55:36;2.78;;;0.93;;
22441;SDS011;11388;54.456;9.752;2022-08-23T12:58:05;5.15;;;1.00;;
22441;SDS011;11388;54.456;9.752;2022-08-23T13:03:02;3.70;;;1.00;;
22441;SDS011;11388;54.456;9.752;2022-08-23T13:05:48;8.10;;;1.13;;
22441;SDS011;11388;54.456;9.752;2022-08-23T13:09:25;5.38;;;1.10;;
22441;SDS011;11388;54.456;9.752;2022-08-23T13:11:41;4.68;;;1.00;;
22441;SDS011;11388;54.456;9.752;2022-08-23T13:14:25;5.20;;;1.00;;
22441;SDS011;11388;54.456;9.752;2022-08-23T13:22:32;1.98;;;0.80;;
22441;SDS011;11388;54.456;9.752;2022-08-23T13:25:06;5.63;;;1.30;;
22441;SDS011;11388;54.456;9.752;2022-08-23T13:27:35;4.10;;;1.33;;
22441;SDS011;11388;54.456;9.752;2022-08-23T13:35:30;5.85;;;1.00;;
22441;SDS011;11388;54.456;9.752;2022-08-23T13:40:42;3.10;;;0.90;;
22441;SDS011;11388;54.456;9.752;2022-08-23T13:43:16;4.45;;;1.20;;
22441;SDS011;11388;54.456;9.752;2022-08-23T13:46:23;3.80;;;1.10;;
22441;SDS011;11388;54.456;9.752;2022-08-23T13:49:05;5.65;;;1.08;;
22441;SDS011;11388;54.456;9.752;2022-08-23T13:51:42;2.70;;;1.00;;
22441;SDS011;11388;54.456;9.752;2022-08-23T13:54:28;4.25;;;0.90;;
22441;SDS011;11388;54.456;9.752;2022-08-23T13:57:04;6.15;;;1.02;;
22441;SDS011;11388;54.456;9.752;2022-08-23T13:59:40;2.10;;;0.77;;
22441;SDS011;11388;54.456;9.752;2022-08-23T14:02:14;3.13;;;1.02;;
22441;SDS011;11388;54.456;9.752;2022-08-23T14:04:41;2.85;;;0.80;;
22441;SDS011;11388;54.456;9.752;2022-08-23T14:07:08;3.42;;;1.00;;
22441;SDS011;11388;54.456;9.752;2022-08-23T14:09:34;2.65;;;0.90;;
22441;SDS011;11388;54.456;9.752;2022-08-23T14:12:03;5.40;;;0.90;;
22441;SDS011;11388;54.456;9.752;2022-08-23T14:14:34;3.35;;;1.00;;
22441;SDS011;11388;54.456;9.752;2022-08-23T14:17:00;2.80;;;0.82;;
22441;SDS011;11388;54.456;9.752;2022-08-23T14:19:27;6.40;;;1.00;;
22441;SDS011;11388;54.456;9.752;2022-08-23T14:21:56;3.60;;;0.70;;
22441;SDS011;11388;54.456;9.752;2022-08-23T14:24:23;4.95;;;0.93;;
22441;SDS011;11388;54.456;9.752;2022-08-23T14:26:52;5.22;;;0.80;;
22441;SDS011;11388;54.456;9.752;2022-08-23T14:29:19;2.88;;;0.80;;
22441;SDS011;11388;54.456;9.752;2022-08-23T14:31:46;5.47;;;0.90;;
22441;SDS011;11388;54.456;9.752;2022-08-23T14:34:12;3.10;;;0.90;;
22441;SDS011;11388;54.456;9.752;2022-08-23T14:36:37;3.17;;;0.80;;
22441;SDS011;11388;54.456;9.752;2022-08-23T14:39:03;7.18;;;1.00;;
22441;SDS011;11388;54.456;9.752;2022-08-23T14:41:36;4.32;;;1.10;;
22441;SDS011;11388;54.456;9.752;2022-08-23T14:44:02;8.30;;;1.10;;
22441;SDS011;11388;54.456;9.752;2022-08-23T14:46:28;10.20;;;1.05;;
22441;SDS011;11388;54.456;9.752;2022-08-23T14:48:54;4.75;;;1.05;;
22441;SDS011;11388;54.456;9.752;2022-08-23T14:51:30;4.13;;;0.80;;
22441;SDS011;11388;54.456;9.752;2022-08-23T14:53:58;2.08;;;0.93;;
22441;SDS011;11388;54.456;9.752;2022-08-23T14:56:25;1.77;;;0.73;;
22441;SDS011;11388;54.456;9.752;2022-08-23T14:58:51;3.00;;;1.00;;
22441;SDS011;11388;54.456;9.752;2022-08-23T15:03:48;12.57;;;0.95;;
22441;SDS011;11388;54.456;9.752;2022-08-23T15:06:15;2.63;;;0.93;;
22441;SDS011;11388;54.456;9.752;2022-08-23T15:08:42;4.13;;;1.00;;
22441;SDS011;11388;54.456;9.752;2022-08-23T15:13:52;4.13;;;1.05;;
22441;SDS011;11388;54.456;9.752;2022-08-23T15:16:18;8.85;;;1.20;;
22441;SDS011;11388;54.456;9.752;2022-08-23T15:18:46;4.45;;;1.08;;
22441;SDS011;11388;54.456;9.752;2022-08-23T15:21:14;5.07;;;0.90;;
22441;SDS011;11388;54.456;9.752;2022-08-23T15:23:41;3.60;;;1.15;;
22441;SDS011;11388;54.456;9.752;2022-08-23T15:26:08;3.47;;;1.15;;
22441;SDS011;11388;54.456;9.752;2022-08-23T15:28:35;4.78;;;1.20;;
22441;SDS011;11388;54.456;9.752;2022-08-23T15:31:02;4.72;;;1.30;;
22441;SDS011;11388;54.456;9.752;2022-08-23T15:33:28;4.00;;;1.17;;
22441;SDS011;11388;54.456;9.752;2022-08-23T15:35:54;3.53;;;1.20;;
22441;SDS011;11388;54.456;9.752;2022-08-23T15:38:21;5.38;;;1.30;;
22441;SDS011;11388;54.456;9.752;2022-08-23T15:40:49;4.35;;;1.20;;
22441;SDS011;11388;54.456;9.752;2022-08-23T15:43:16;5.03;;;1.10;;
22441;SDS011;11388;54.456;9.752;2022-08-23T15:45:43;5.45;;;1.00;;
22441;SDS011;11388;54.456;9.752;2022-08-23T15:48:14;5.00;;;1.20;;
22441;SDS011;11388;54.456;9.752;2022-08-23T15:50:48;6.47;;;1.40;;
22441;SDS011;11388;54.456;9.752;2022-08-23T15:53:15;4.07;;;1.02;;
22441;SDS011;11388;54.456;9.752;2022-08-23T15:55:41;5.07;;;0.98;;
22441;SDS011;11388;54.456;9.752;2022-08-23T15:58:16;3.70;;;0.90;;
22441;SDS011;11388;54.456;9.752;2022-08-23T16:00:44;4.80;;;1.10;;
22441;SDS011;11388;54.456;9.752;2022-08-23T16:03:11;2.53;;;0.82;;
22441;SDS011;11388;54.456;9.752;2022-08-23T16:05:37;5.03;;;0.90;;
22441;SDS011;11388;54.456;9.752;2022-08-23T16:08:05;4.10;;;1.10;;
22441;SDS011;11388;54.456;9.752;2022-08-23T16:10:32;3.20;;;0.93;;
22441;SDS011;11388;54.456;9.752;2022-08-23T16:12:59;3.08;;;1.00;;
22441;SDS011;11388;54.456;9.752;2022-08-23T16:15:24;2.35;;;1.00;;
22441;SDS011;11388;54.456;9.752;2022-08-23T16:17:50;7.80;;;1.00;;
22441;SDS011;11388;54.456;9.752;2022-08-23T16:20:16;4.57;;;1.00;;
22441;SDS011;11388;54.456;9.752;2022-08-23T16:22:42;4.57;;;1.00;;
22441;SDS011;11388;54.456;9.752;2022-08-23T16:25:08;2.30;;;0.90;;
22441;SDS011;11388;54.456;9.752;2022-08-23T16:27:34;5.60;;;1.17;;
22441;SDS011;11388;54.456;9.752;2022-08-23T16:30:01;3.10;;;1.00;;
22441;SDS011;11388;54.456;9.752;2022-08-23T16:32:28;4.15;;;0.98;;
22441;SDS011;11388;54.456;9.752;2022-08-23T16:34:53;5.63;;;1.08;;
22441;SDS011;11388;54.456;9.752;2022-08-23T16:37:19;6.18;;;1.15;;
22441;SDS011;11388;54.456;9.752;2022-08-23T16:39:45;6.78;;;1.23;;
22441;SDS011;11388;54.456;9.752;2022-08-23T16:42:11;4.43;;;0.93;;
22441;SDS011;11388;54.456;9.752;2022-08-23T16:44:37;4.43;;;1.20;;
22441;SDS011;11388;54.456;9.752;2022-08-23T16:47:03;3.28;;;1.08;;
22441;SDS011;11388;54.456;9.752;2022-08-23T16:49:31;4.90;;;1.10;;
22441;SDS011;11388;54.456;9.752;2022-08-23T16:51:58;4.47;;;0.95;;
22441;SDS011;11388;54.456;9.752;2022-08-23T16:54:24;4.05;;;1.10;;
22441;SDS011;11388;54.456;9.752;2022-08-23T16:56:52;3.42;;;1.00;;
22441;SDS011;11388;54.456;9.752;2022-08-23T16:59:18;3.85;;;1.00;;
22441;SDS011;11388;54.456;9.752;2022-08-23T17:04:09;5.43;;;1.25;;
22441;SDS011;11388;54.456;9.752;2022-08-23T17:06:35;3.85;;;1.02;;
22441;SDS011;11388;54.456;9.752;2022-08-23T17:09:00;3.63;;;0.90;;
22441;SDS011;11388;54.456;9.752;2022-08-23T17:11:26;4.78;;;0.95;;
22441;SDS011;11388;54.456;9.752;2022-08-23T17:13:52;4.60;;;1.30;;
22441;SDS011;11388;54.456;9.752;2022-08-23T17:16:17;4.50;;;1.08;;
22441;SDS011;11388;54.456;9.752;2022-08-23T17:18:44;6.05;;;1.40;;
22441;SDS011;11388;54.456;9.752;2022-08-23T17:21:11;6.57;;;1.25;;
22441;SDS011;11388;54.456;9.752;2022-08-23T17:23:37;8.02;;;1.10;;
22441;SDS011;11388;54.456;9.752;2022-08-23T17:26:03;6.72;;;1.20;;
22441;SDS011;11388;54.456;9.752;2022-08-23T17:28:29;3.80;;;1.10;;
22441;SDS011;11388;54.456;9.752;2022-08-23T17:30:58;4.32;;;0.90;;
22441;SDS011;11388;54.456;9.752;2022-08-23T17:33:24;4.40;;;1.15;;
22441;SDS011;11388;54.456;9.752;2022-08-23T17:35:50;4.47;;;1.02;;
22441;SDS011;11388;54.456;9.752;2022-08-23T17:38:15;3.92;;;0.90;;
22441;SDS011;11388;54.456;9.752;2022-08-23T17:40:41;4.50;;;1.10;;
22441;SDS011;11388;54.456;9.752;2022-08-23T17:43:07;5.22;;;1.10;;
22441;SDS011;11388;54.456;9.752;2022-08-23T17:45:38;3.20;;;0.93;;
22441;SDS011;11388;54.456;9.752;2022-08-23T17:48:09;2.85;;;0.90;;
22441;SDS011;11388;54.456;9.752;2022-08-23T17:50:35;6.10;;;1.00;;
22441;SDS011;11388;54.456;9.752;2022-08-23T17:53:02;4.35;;;1.00;;
22441;SDS011;11388;54.456;9.752;2022-08-23T17:55:29;4.32;;;1.08;;
22441;SDS011;11388;54.456;9.752;2022-08-23T17:57:57;3.42;;;1.05;;
22441;SDS011;11388;54.456;9.752;2022-08-23T18:00:23;5.82;;;1.20;;
22441;SDS011;11388;54.456;9.752;2022-08-23T18:02:50;6.40;;;0.93;;
22441;SDS011;11388;54.456;9.752;2022-08-23T18:05:16;4.13;;;0.90;;
22441;SDS011;11388;54.456;9.752;2022-08-23T18:07:42;3.78;;;0.90;;
22441;SDS011;11388;54.456;9.752;2022-08-23T18:10:09;4.18;;;0.90;;
22441;SDS011;11388;54.456;9.752;2022-08-23T18:12:36;5.10;;;1.00;;
22441;SDS011;11388;54.456;9.752;2022-08-23T18:15:03;3.13;;;1.00;;
22441;SDS011;11388;54.456;9.752;2022-08-23T18:17:31;5.35;;;1.00;;
22441;SDS011;11388;54.456;9.752;2022-08-23T18:19:58;3.67;;;1.08;;
22441;SDS011;11388;54.456;9.752;2022-08-23T18:22:24;3.33;;;1.00;;
22441;SDS011;11388;54.456;9.752;2022-08-23T18:24:51;3.03;;;0.90;;
22441;SDS011;11388;54.456;9.752;2022-08-23T18:27:17;2.25;;;0.93;;
22441;SDS011;11388;54.456;9.752;2022-08-23T18:30:02;4.63;;;0.93;;
22441;SDS011;11388;54.456;9.752;2022-08-23T18:32:31;5.53;;;0.73;;
22441;SDS011;11388;54.456;9.752;2022-08-23T18:34:57;4.07;;;1.27;;
22441;SDS011;11388;54.456;9.752;2022-08-23T18:37:22;4.47;;;1.13;;
22441;SDS011;11388;54.456;9.752;2022-08-23T18:39:48;5.28;;;1.10;;
22441;SDS011;11388;54.456;9.752;2022-08-23T18:42:14;3.97;;;0.88;;
22441;SDS011;11388;54.456;9.752;2022-08-23T18:44:40;5.18;;;1.20;;